Date,TemperatureHighF,TemperatureAvgF,TemperatureLowF,DewpointHighF,DewpointAvgF,DewpointLowF,HumidityHigh,HumidityAvg,HumidityLow,PressureMaxIn,PressureMinIn,WindSpeedMaxMPH,WindSpeedAvgMPH,GustSpeedMaxMPH,PrecipitationSumIn
2013-3-1,56.2,52.6,48.8,50.7,48.9,46.3,96,87,78,30.30,30.21,20,2,20,0.05
2013-3-2,55.9,46.8,36.3,48.1,43.5,35.2,96,88,70,30.21,29.99,13,1,13,0.56
2013-3-3,54.9,39.7,31.9,43.1,34.9,29.8,97,84,50,30.24,30.13,9,0,11,0.00
2013-3-4,56.9,41.4,28.9,37.6,28.9,24.4,94,65,35,30.23,29.85,12,1,13,0.00
2013-3-5,52.9,44.9,40.4,38.7,32.4,24.2,87,63,44,29.85,29.65,8,1,8,0.00
2013-3-6,43.2,39.5,35.5,41.4,37.7,33.7,96,93,87,29.84,29.51,5,0,11,0.54
2013-3-7,50.3,41.4,35.7,46.9,39.8,34.7,98,94,81,30.02,29.83,4,0,4,0.41
2013-3-8,57.7,39.7,29.8,46.6,36.1,28.9,98,88,60,30.17,30.01,9,0,9,0.01
2013-3-9,61.9,42.7,30.7,44.7,35.7,29.7,97,79,47,30.43,30.17,9,1,11,0.00
2013-3-10,45.3,40.3,34.5,41.7,37.5,32.0,95,90,79,30.42,30.36,4,0,4,0.03
2013-3-11,52.7,44.5,37.7,45.0,41.6,36.7,97,90,71,30.38,30.10,5,0,5,0.05
2013-3-12,52.7,49.7,44.6,48.8,46.7,43.5,97,89,75,30.10,30.01,17,2,18,0.00
2013-3-13,51.3,49.9,48.2,50.0,48.1,46.2,97,93,86,30.14,30.02,16,1,16,0.27
2013-3-14,52.9,48.7,46.4,51.1,47.2,44.0,100,95,84,30.09,29.95,12,0,12,0.02
2013-3-15,59.3,51.2,46.8,50.8,47.4,44.7,96,87,67,30.14,30.06,7,1,14,0.01
2013-3-16,47.9,44.8,38.9,45.1,41.0,34.7,94,86,73,30.07,29.81,18,2,18,0.05
2013-3-17,51.1,41.0,36.2,38.3,34.8,33.1,91,79,54,30.13,29.91,13,2,13,0.01
2013-3-18,54.2,42.1,35.3,42.1,36.0,33.3,95,79,55,30.17,30.04,19,2,19,0.00
2013-3-19,57.7,42.4,33.7,41.0,34.0,28.6,100,75,35,30.16,29.53,11,1,13,0.22
2013-3-20,49.9,43.9,38.2,47.3,40.5,32.7,98,88,73,29.95,29.33,26,3,26,0.68
2013-3-21,47.6,38.4,33.8,38.1,33.9,32.1,96,85,61,30.15,29.94,14,1,14,0.10
2013-3-22,49.2,36.8,30.3,39.8,32.4,28.3,96,85,57,30.31,30.15,7,0,7,0.12
2013-3-23,56.9,39.2,29.5,37.2,29.3,26.0,93,71,38,30.33,30.23,10,1,10,0.00
2013-3-24,56.9,42.0,29.6,36.8,29.0,25.5,90,64,32,30.24,30.06,6,0,7,0.00
2013-3-25,66.0,50.5,35.5,36.0,30.4,25.2,68,48,28,30.07,29.86,6,0,7,0.00
2013-3-26,68.5,52.1,43.4,44.5,38.1,33.6,78,60,35,29.94,29.88,10,1,10,0.00
2013-3-27,59.4,48.6,42.1,48.2,42.4,37.7,94,80,56,29.92,29.86,6,0,6,0.03
2013-3-28,66.2,50.5,41.4,53.0,44.8,39.5,96,82,55,30.08,29.92,8,0,8,0.03
2013-3-29,71.8,53.7,41.6,50.2,44.1,39.7,94,73,42,30.18,30.08,9,1,12,0.00
2013-3-30,77.4,55.0,38.8,49.2,43.1,37.2,96,69,34,30.18,30.01,6,0,6,0.00
2013-3-31,81.0,57.5,39.4,51.1,44.9,38.1,97,67,33,30.01,29.83,9,1,9,0.00